Dades meteomassalio
Diari Summary for Marc 10, 2017 Units:  Metric    English   Both
« Previous Day
Next Day »
Diari Semanal Mensual Anual Personalitzat
  Maxima: Minima: Mijana:
Temperatura: -17.8 °C -12.1 °C -7.6 °C
Rosada: -17.8 °C -17.7 °C -15.1 °C
Humitat: Humidity % 18 % 45 %
Velocitat del vent: 0 km/h 0 km/h 14.2 km/h
Racha vent: 0 km/h - -
Vent:- - WNW
Pressio: 0 hPa 34428.8 hPa -
Pluja: 0 mm    
Historical Graphs
 
 
Tabular Data for Marc 10, 2017
Time Temperature Dew Point Pressure Wind Wind Speed Wind Gust Humidity Rainfall Rate (Hourly) solar Conditions
-17.8 °C -17.8 °C 0 hPa Calm     Humidity % 0 mm SolarRadiationWatts/m^2 W/m2 Conditions
00:01 -10.7 °C -13.8 °C 34645.6 hPa Calm     68 % 0 mm 0.0 W/m2 CLR
00:06 -10.6 °C -13.9 °C 34645.6 hPa WSW 9 km/h 9 km/h 67 % 0 mm 0.0 W/m2 CLR
00:11 -10.4 °C -13.8 °C 34645.6 hPa Calm     66 % 0 mm 0.0 W/m2 CLR
00:16 -10.4 °C -13.9 °C 34659.1 hPa Calm     66 % 0 mm 0.0 W/m2 CLR
00:21 -10.7 °C -14 °C 34659.1 hPa Calm     67 % 0 mm 0.0 W/m2 CLR
00:22 -10.7 °C -14 °C 34659.1 hPa Calm     67 % 0 mm 0.0 W/m2 CLR
00:27 -10.6 °C -14.1 °C 34659.1 hPa Calm     66 % 0 mm 0.0 W/m2 CLR
00:32 -10.6 °C -14 °C 34659.1 hPa Calm     66 % 0 mm 0.0 W/m2 CLR
00:37 -10.6 °C -14 °C 34659.1 hPa Calm     66 % 0 mm 0.0 W/m2 CLR
00:43 -10.7 °C -14.1 °C 34659.1 hPa Calm     67 % 0 mm 0.0 W/m2 CLR
00:48 -10.8 °C -14.1 °C 34659.1 hPa Calm     67 % 0 mm 0.0 W/m2 CLR
00:53 -10.7 °C -14.1 °C 34645.6 hPa WSW 6 km/h 6 km/h 66 % 0 mm 0.0 W/m2 CLR
00:58 -10.5 °C -14 °C 34645.6 hPa SW 11.9 km/h 11.9 km/h 66 % 0 mm 0.0 W/m2 CLR
01:03 -10.4 °C -14.1 °C 34645.6 hPa SW 9 km/h 9 km/h 65 % 0 mm 0.0 W/m2 CLR
01:09 -10.4 °C -14 °C 34645.6 hPa Calm     65 % 0 mm 0.0 W/m2 CLR
01:14 -10.4 °C -14.1 °C 34645.6 hPa Calm     65 % 0 mm 0.0 W/m2 CLR
01:19 -10.6 °C -14.1 °C 34645.6 hPa Calm     66 % 0 mm 0.0 W/m2 CLR
01:24 -10.7 °C -14.1 °C 34645.6 hPa Calm     66 % 0 mm 0.0 W/m2 CLR
01:29 -10.6 °C -14.1 °C 34645.6 hPa Calm     66 % 0 mm 0.0 W/m2 CLR
01:34 -10.5 °C -14.1 °C 34645.6 hPa Calm     65 % 0 mm 0.0 W/m2 CLR
01:39 -10.4 °C -14.1 °C 34645.6 hPa Calm     64 % 0 mm 0.0 W/m2 CLR
01:44 -10.3 °C -14 °C 34645.6 hPa Calm     64 % 0 mm 0.0 W/m2 CLR
01:50 -10.3 °C -14.1 °C 34645.6 hPa Calm     63 % 0 mm 0.0 W/m2 CLR
01:55 -10.3 °C -14.2 °C 34645.6 hPa Calm     63 % 0 mm 0.0 W/m2 CLR
02:00 -10.3 °C -14.1 °C 34645.6 hPa Calm     63 % 0 mm 0.0 W/m2 CLR
02:05 -10.3 °C -14.2 °C 34645.6 hPa Calm     63 % 0 mm 0.0 W/m2 CLR
02:10 -10.4 °C -14.2 °C 34645.6 hPa Calm     63 % 0 mm 0.0 W/m2 CLR
02:15 -10.5 °C -14.2 °C 34645.6 hPa Calm     64 % 0 mm 0.0 W/m2 CLR
02:20 -10.6 °C -14.3 °C 34645.6 hPa Calm     64 % 0 mm 0.0 W/m2 CLR
02:25 -10.7 °C -14.3 °C 34635.4 hPa Calm     64 % 0 mm 0.0 W/m2 CLR
02:30 -10.7 °C -14.3 °C 34635.4 hPa Calm     65 % 0 mm 0.0 W/m2 CLR
02:35 -10.9 °C -14.3 °C 34635.4 hPa Calm     66 % 0 mm 0.0 W/m2 CLR
02:41 -10.9 °C -14.4 °C 34635.4 hPa Calm     66 % 0 mm 0.0 W/m2 CLR
02:46 -10.9 °C -14.4 °C 34635.4 hPa Calm     66 % 0 mm 0.0 W/m2 CLR
02:51 -10.9 °C -14.4 °C 34635.4 hPa Calm     65 % 0 mm 0.0 W/m2 CLR
02:56 -10.8 °C -14.4 °C 34625.2 hPa WSW 5.1 km/h 5.1 km/h 65 % 0 mm 0.0 W/m2 CLR
03:01 -10.9 °C -14.6 °C 34635.4 hPa WSW 3.1 km/h   64 % 0 mm 0.0 W/m2 CLR
03:06 -10.7 °C -14.6 °C 34625.2 hPa SW 9 km/h 9 km/h 63 % 0 mm 0.0 W/m2 CLR
03:11 -10.6 °C -14.6 °C 34625.2 hPa Calm     62 % 0 mm 0.0 W/m2 CLR
03:16 -10.7 °C -14.6 °C 34625.2 hPa Calm     63 % 0 mm 0.0 W/m2 CLR
03:22 -10.9 °C -14.6 °C 34625.2 hPa Calm     64 % 0 mm 0.0 W/m2 CLR
03:27 -11 °C -14.7 °C 34625.2 hPa Calm     64 % 0 mm 0.0 W/m2 CLR
03:32 -11 °C -14.7 °C 34625.2 hPa Calm     64 % 0 mm 0.0 W/m2 CLR
03:37 -11 °C -14.8 °C 34625.2 hPa Calm     63 % 0 mm 0.0 W/m2 CLR
03:42 -10.9 °C -14.8 °C 34611.7 hPa Calm     63 % 0 mm 0.0 W/m2 CLR
03:47 -10.9 °C -14.7 °C 34611.7 hPa Calm     63 % 0 mm 0.0 W/m2 CLR
03:52 -10.9 °C -14.7 °C 34611.7 hPa Calm     63 % 0 mm 0.0 W/m2 CLR
03:57 -10.9 °C -14.8 °C 34611.7 hPa Calm     63 % 0 mm 0.0 W/m2 CLR
04:02 -11 °C -14.8 °C 34611.7 hPa Calm     63 % 0 mm 0.0 W/m2 CLR
04:07 -11 °C -14.8 °C 34611.7 hPa Calm     63 % 0 mm 0.0 W/m2 CLR
04:12 -11.1 °C -14.7 °C 34611.7 hPa Calm     64 % 0 mm 0.0 W/m2 CLR
04:17 -11.1 °C -14.8 °C 34611.7 hPa Calm     64 % 0 mm 0.0 W/m2 CLR
04:22 -11.2 °C -14.7 °C 34611.7 hPa Calm   0.3 km/h 65 % 0 mm 0.0 W/m2 CLR
04:27 -11.2 °C -14.8 °C 34601.5 hPa Calm     65 % 0 mm 0.0 W/m2 CLR
04:32 -11.3 °C -14.9 °C 34601.5 hPa Calm     65 % 0 mm 0.0 W/m2 CLR
04:38 -11.3 °C -14.9 °C 34601.5 hPa Calm     65 % 0 mm 0.0 W/m2 CLR
04:43 -11.3 °C -14.9 °C 34601.5 hPa Calm     65 % 0 mm 0.0 W/m2 CLR
04:48 -11.3 °C -14.9 °C 34601.5 hPa Calm     65 % 0 mm 0.0 W/m2 CLR
04:53 -11.3 °C -14.8 °C 34601.5 hPa Calm     65 % 0 mm 0.0 W/m2 CLR
04:58 -11.2 °C -14.9 °C 34601.5 hPa Calm     64 % 0 mm 0.0 W/m2 CLR
05:03 -11.2 °C -14.9 °C 34601.5 hPa Calm     64 % 0 mm 0.0 W/m2 CLR
05:08 -11.2 °C -14.9 °C 34601.5 hPa Calm     64 % 0 mm 0.0 W/m2 CLR
05:13 -11.2 °C -14.9 °C 34601.5 hPa Calm     64 % 0 mm 0.0 W/m2 CLR
05:18 -11.3 °C -14.9 °C 34601.5 hPa Calm     64 % 0 mm 0.0 W/m2 CLR
05:23 -11.2 °C -14.9 °C 34601.5 hPa Calm     64 % 0 mm 0.0 W/m2 CLR
05:28 -11.2 °C -14.9 °C 34601.5 hPa Calm     63 % 0 mm 0.0 W/m2 CLR
05:33 -11.1 °C -14.9 °C 34601.5 hPa Calm     63 % 0 mm 0.0 W/m2 CLR
05:38 -11.1 °C -14.9 °C 34601.5 hPa Calm     63 % 0 mm 0.0 W/m2 CLR
05:43 -10.9 °C -14.8 °C 34601.5 hPa WSW 15 km/h 15 km/h 62 % 0 mm 0.0 W/m2 CLR
05:48 -10.2 °C -14.9 °C 34601.5 hPa West 20.9 km/h 20.9 km/h 57 % 0 mm 0.0 W/m2 CLR
05:53 -9.4 °C -14.9 °C 34601.5 hPa WSW 17.9 km/h 17.9 km/h 52 % 0 mm 0.0 W/m2 CLR
05:58 -9.2 °C -14.9 °C 34591.4 hPa West 20.8 km/h 20.8 km/h 50 % 0 mm 0.0 W/m2 CLR
06:03 -9.3 °C -14.9 °C 34591.4 hPa WSW 6 km/h 6 km/h 51 % 0 mm 0.0 W/m2 CLR
06:08 -9.8 °C -15.1 °C 34591.4 hPa WSW 9 km/h 9 km/h 53 % 0 mm 0.0 W/m2 CLR
06:13 -10.1 °C -15.1 °C 34591.4 hPa WSW 17.9 km/h 17.9 km/h 55 % 0 mm 0.0 W/m2 CLR
06:18 -10.2 °C -15.1 °C 34601.5 hPa WSW 11.9 km/h 11.9 km/h 55 % 0 mm 0.0 W/m2 CLR
06:23 -10.1 °C -15.1 °C 34601.5 hPa SW 9 km/h 9 km/h 55 % 0 mm 0.0 W/m2 CLR
06:28 -9.9 °C -15.2 °C 34601.5 hPa WSW 9 km/h 9 km/h 53 % 0 mm 0.0 W/m2 CLR
06:33 -9.8 °C -15.1 °C 34601.5 hPa Calm     53 % 0 mm 0.0 W/m2 CLR
06:38 -9.9 °C -15.1 °C 34601.5 hPa Calm     54 % 0 mm 0.0 W/m2 CLR
06:43 -10.2 °C -15.2 °C 34601.5 hPa Calm     55 % 0 mm 0.0 W/m2 CLR
06:48 -10.4 °C -15.2 °C 34601.5 hPa Calm     56 % 0 mm 0.0 W/m2 CLR
06:53 -10.6 °C -15.2 °C 34601.5 hPa Calm     57 % 0 mm 0.0 W/m2 CLR
06:58 -10.7 °C -15.2 °C 34601.5 hPa Calm     58 % 0 mm 0.0 W/m2 CLR
07:03 -10.9 °C -15.2 °C 34601.5 hPa Calm     59 % 0 mm 0.0 W/m2 CLR
07:08 -11.1 °C -15.3 °C 34601.5 hPa Calm     60 % 0 mm 0.0 W/m2 CLR
07:13 -11.2 °C -15.2 °C 34601.5 hPa Calm     61 % 0 mm 0.0 W/m2 OVC
07:18 -11.2 °C -15.3 °C 34601.5 hPa Calm     61 % 0 mm 0.0 W/m2 OVC
07:23 -11.2 °C -15.2 °C 34601.5 hPa Calm     62 % 0 mm 5.0 W/m2 OVC
07:28 -11.3 °C -15.2 °C 34601.5 hPa Calm     62 % 0 mm 9.0 W/m2 BKN
07:33 -11.3 °C -15.2 °C 34601.5 hPa Calm     62 % 0 mm 11.0 W/m2 BKN
07:38 -11.3 °C -15.2 °C 34601.5 hPa Calm     62 % 0 mm 14.0 W/m2 BKN
07:43 -11.3 °C -15.2 °C 34601.5 hPa Calm     62 % 0 mm 16.0 W/m2 BKN
07:48 -11.3 °C -15.1 °C 34601.5 hPa Calm     63 % 0 mm 21.0 W/m2 BKN
07:53 -11.2 °C -15.1 °C 34601.5 hPa Calm     63 % 0 mm 26.0 W/m2 BKN
07:58 -11.2 °C -15.1 °C 34601.5 hPa Calm     62 % 0 mm 42.0 W/m2 BKN
08:04 -11.1 °C -14.8 °C 34601.5 hPa Calm     63 % 0 mm 47.0 W/m2 SCT
08:09 -10.9 °C -14.8 °C 34601.5 hPa Calm     62 % 0 mm 69.0 W/m2 SCT
08:14 -10.7 °C -14.6 °C 34611.7 hPa Calm     62 % 0 mm 79.0 W/m2 FEW
08:19 -10.5 °C -14.7 °C 34601.5 hPa Calm     60 % 0 mm 90.0 W/m2 CLR
08:24 -10.4 °C -14.5 °C 34601.5 hPa Calm     61 % 0 mm 83.0 W/m2 FEW
08:29 -10.1 °C -14.3 °C 34601.5 hPa WSW 7.7 km/h 7.7 km/h 60 % 0 mm 109.0 W/m2 CLR
08:34 -9.6 °C -14.5 °C 34601.5 hPa SW 9 km/h 9 km/h 55 % 0 mm 84.0 W/m2 CLR
08:39 -8.9 °C -14.4 °C 34601.5 hPa WSW 17.9 km/h 17.9 km/h 52 % 0 mm 174.0 W/m2 CLR
08:44 -8.3 °C -14.4 °C 34601.5 hPa SW 9 km/h 9 km/h 48 % 0 mm 197.0 W/m2 CLR
08:49 -7.9 °C -14.3 °C 34601.5 hPa SSW 17.9 km/h 17.9 km/h 47 % 0 mm 216.0 W/m2 CLR
08:54 -7.9 °C -13.8 °C 34601.5 hPa Calm     50 % 0 mm 234.0 W/m2 CLR
08:59 -7.9 °C -14.3 °C 34601.5 hPa WSW 11.9 km/h 11.9 km/h 47 % 0 mm 253.0 W/m2 CLR
09:04 -7.6 °C -14.1 °C 34601.5 hPa WNW 18.2 km/h 18.2 km/h 46 % 0 mm 271.0 W/m2 CLR
09:09 -7.2 °C -14.9 °C 34601.5 hPa WSW 29.8 km/h 29.8 km/h 40 % 0 mm 287.0 W/m2 CLR
09:14 -6.8 °C -14.6 °C 34601.5 hPa SW 15 km/h 15 km/h 40 % 0 mm 301.0 W/m2 CLR
09:19 -6.6 °C -14.3 °C 34601.5 hPa SW 20.9 km/h 20.9 km/h 40 % 0 mm 315.0 W/m2 CLR
09:24 -6.4 °C -14.8 °C 34601.5 hPa WSW 26.9 km/h 26.9 km/h 37 % 0 mm 332.0 W/m2 CLR
09:29 -6.2 °C -14.7 °C 34601.5 hPa WSW 15 km/h 15 km/h 37 % 0 mm 348.0 W/m2 CLR
09:34 -6.1 °C -14.8 °C 34601.5 hPa WSW 15.6 km/h 15.6 km/h 36 % 0 mm 366.0 W/m2 CLR
09:39 -6 °C -14.9 °C 34601.5 hPa WSW 31.1 km/h 31.1 km/h 35 % 0 mm 380.0 W/m2 CLR
09:44 -5.9 °C -14.6 °C 34601.5 hPa WNW 20.9 km/h 20.9 km/h 36 % 0 mm 394.0 W/m2 CLR
09:49 -5.8 °C -15.2 °C 34591.4 hPa West 29.8 km/h 29.8 km/h 33 % 0 mm 410.0 W/m2 CLR
09:54 -5.7 °C -14.9 °C 34591.4 hPa WNW 18.2 km/h 18.2 km/h 34 % 0 mm 424.0 W/m2 CLR
09:59 -5.7 °C -14.8 °C 34591.4 hPa WNW 23.8 km/h 23.8 km/h 34 % 0 mm 438.0 W/m2 CLR
10:04 -5.6 °C -14.8 °C 34591.4 hPa WNW 17.9 km/h 17.9 km/h 34 % 0 mm 452.0 W/m2 CLR
10:09 -5.5 °C -14.8 °C 34591.4 hPa WSW 23.8 km/h 23.8 km/h 34 % 0 mm 466.0 W/m2 CLR
10:14 -5.4 °C -15.2 °C 34591.4 hPa WNW 35.7 km/h 35.7 km/h 32 % 0 mm 478.0 W/m2 CLR
10:19 -5.4 °C -14.9 °C 34591.4 hPa WNW 38.8 km/h 38.8 km/h 33 % 0 mm 490.0 W/m2 CLR
10:24 -5.4 °C -15.1 °C 34591.4 hPa West 31.1 km/h 31.1 km/h 32 % 0 mm 503.0 W/m2 CLR
10:29 -5.3 °C -15.1 °C 34591.4 hPa WNW 23.8 km/h 23.8 km/h 32 % 0 mm 513.0 W/m2 CLR
10:34 -5.2 °C -14.7 °C 34577.8 hPa NW 35.7 km/h 35.7 km/h 33 % 0 mm 529.0 W/m2 CLR
10:39 -5.2 °C -14.9 °C 34577.8 hPa West 38.8 km/h 38.8 km/h 32 % 0 mm 541.0 W/m2 CLR
10:44 -5.1 °C -15.1 °C 34577.8 hPa West 50.7 km/h 50.7 km/h 31 % 0 mm 554.0 W/m2 CLR
10:49 -5 °C -15.1 °C 34577.8 hPa WNW 38.8 km/h 38.8 km/h 31 % 0 mm 563.0 W/m2 CLR
10:59 -4.8 °C -14.6 °C 34577.8 hPa WNW 29.8 km/h 29.8 km/h 32 % 0 mm 584.0 W/m2 CLR
11:04 -4.7 °C -14 °C 34577.8 hPa WNW 28.5 km/h 28.5 km/h 34 % 0 mm 594.0 W/m2 CLR
11:09 -4.7 °C -14.5 °C 34577.8 hPa WNW 41.7 km/h 41.7 km/h 32 % 0 mm 603.0 W/m2 CLR
11:14 -4.7 °C -14.5 °C 34577.8 hPa NNW 41.7 km/h 41.7 km/h 32 % 0 mm 615.0 W/m2 CLR
11:19 -4.7 °C -14.7 °C 34577.8 hPa WNW 47.6 km/h 47.6 km/h 31 % 0 mm 624.0 W/m2 CLR
11:24 -4.6 °C -14.2 °C 34577.8 hPa WNW 29.8 km/h 29.8 km/h 33 % 0 mm 633.0 W/m2 CLR
11:29 -4.5 °C -13.8 °C 34577.8 hPa WNW 29.8 km/h 29.8 km/h 34 % 0 mm 642.0 W/m2 CLR
11:34 -4.4 °C -14.3 °C 34567.7 hPa WNW 35.7 km/h 35.7 km/h 32 % 0 mm 650.0 W/m2 CLR
11:39 -4.5 °C -14.6 °C 34567.7 hPa NW 35.7 km/h 35.7 km/h 31 % 0 mm 657.0 W/m2 CLR
11:44 -4.4 °C -14.5 °C 34567.7 hPa WNW 29.8 km/h 29.8 km/h 31 % 0 mm 666.0 W/m2 CLR
11:49 -4.3 °C -14.4 °C 34567.7 hPa NW 23.3 km/h 23.3 km/h 31 % 0 mm 673.0 W/m2 CLR
11:54 -4.2 °C -14.3 °C 34567.7 hPa WNW 36.2 km/h 36.2 km/h 31 % 0 mm 682.0 W/m2 CLR
11:59 -4.2 °C -14.6 °C 34567.7 hPa NW 38.8 km/h 38.8 km/h 30 % 0 mm 689.0 W/m2 CLR
12:04 -4.1 °C -14.6 °C 34554.1 hPa WNW 29.8 km/h 29.8 km/h 30 % 0 mm 694.0 W/m2 CLR
12:09 -4.1 °C -14.7 °C 34554.1 hPa NW 38.8 km/h 38.8 km/h 29 % 0 mm 700.0 W/m2 CLR
12:14 -4 °C -14.7 °C 34554.1 hPa WNW 32.8 km/h 32.8 km/h 29 % 0 mm 705.0 W/m2 CLR
12:19 -3.9 °C -15.2 °C 34554.1 hPa NW 32.8 km/h 32.8 km/h 27 % 0 mm 710.0 W/m2 CLR
12:24 -3.8 °C -14.8 °C 34554.1 hPa WNW 26.9 km/h 26.9 km/h 28 % 0 mm 712.0 W/m2 CLR
12:29 -3.8 °C -15.1 °C 34554.1 hPa NNW 38.8 km/h 38.8 km/h 27 % 0 mm 715.0 W/m2 CLR
12:34 -3.8 °C -14.8 °C 34554.1 hPa NW 41.7 km/h 41.7 km/h 28 % 0 mm 719.0 W/m2 CLR
12:40 -3.8 °C -14.8 °C 34544 hPa NNW 41.7 km/h 41.7 km/h 28 % 0 mm 721.0 W/m2 CLR
12:45 -3.8 °C -14.8 °C 34544 hPa NNW 53.6 km/h 53.6 km/h 28 % 0 mm 726.0 W/m2 CLR
12:50 -3.7 °C -15.1 °C 34544 hPa NW 38.8 km/h 38.8 km/h 27 % 0 mm 728.0 W/m2 CLR
12:55 -3.7 °C -14.7 °C 34533.8 hPa WNW 33.6 km/h 33.6 km/h 28 % 0 mm 733.0 W/m2 CLR
13:00 -3.7 °C -15.6 °C 34544 hPa NW 50.7 km/h 50.7 km/h 25 % 0 mm 733.0 W/m2 CLR
13:05 -3.6 °C -14.9 °C 34533.8 hPa NW 38.8 km/h 38.8 km/h 27 % 0 mm 733.0 W/m2 CLR
13:10 -3.4 °C -14.8 °C 34533.8 hPa NW 35.7 km/h 35.7 km/h 27 % 0 mm 731.0 W/m2 CLR
13:15 -3.4 °C -14.8 °C 34533.8 hPa NNW 26.9 km/h 26.9 km/h 27 % 0 mm 731.0 W/m2 CLR
13:20 -3.6 °C -15.5 °C 34533.8 hPa NNW 50.7 km/h 50.7 km/h 25 % 0 mm 729.0 W/m2 CLR
13:25 -3.6 °C -15.2 °C 34520.3 hPa WNW 56.6 km/h 56.6 km/h 26 % 0 mm 733.0 W/m2 CLR
13:30 -3.6 °C -15.5 °C 34520.3 hPa WNW 35.7 km/h 35.7 km/h 25 % 0 mm 729.0 W/m2 CLR
13:35 -3.4 °C -15.1 °C 34520.3 hPa WNW 44.7 km/h 44.7 km/h 26 % 0 mm 728.0 W/m2 CLR
13:40 -3.4 °C -15.4 °C 34520.3 hPa NW 47.6 km/h 47.6 km/h 25 % 0 mm 726.0 W/m2 CLR
13:45 -3.4 °C -15.1 °C 34510.1 hPa NNW 31.1 km/h 31.1 km/h 26 % 0 mm 724.0 W/m2 CLR
13:50 -3.3 °C -15.2 °C 34510.1 hPa NW 44.7 km/h 44.7 km/h 25 % 0 mm 721.0 W/m2 CLR
13:55 -3.2 °C -14.9 °C 34510.1 hPa NNW 38.8 km/h 38.8 km/h 26 % 0 mm 719.0 W/m2 CLR
14:00 -3.2 °C -14.9 °C 34510.1 hPa North 47.6 km/h 47.6 km/h 26 % 0 mm 717.0 W/m2 CLR
14:05 -3.2 °C -15.5 °C 34510.1 hPa NW 32.8 km/h 32.8 km/h 24 % 0 mm 712.0 W/m2 CLR
14:10 -2.9 °C -14.9 °C 34496.6 hPa NNW 32.8 km/h 32.8 km/h 25 % 0 mm 708.0 W/m2 CLR
14:15 -2.9 °C -15.7 °C 34496.6 hPa NW 44.7 km/h 44.7 km/h 23 % 0 mm 703.0 W/m2 CLR
14:20 -2.9 °C -16 °C 34496.6 hPa NNW 47.6 km/h 47.6 km/h 22 % 0 mm 700.0 W/m2 CLR
14:25 -2.9 °C -16 °C 34496.6 hPa NNW 44.7 km/h 44.7 km/h 22 % 0 mm 693.0 W/m2 CLR
14:30 -2.9 °C -15.7 °C 34486.4 hPa NW 47.6 km/h 47.6 km/h 23 % 0 mm 684.0 W/m2 CLR
14:35 -2.8 °C -15.2 °C 34496.6 hPa NW 29.8 km/h 29.8 km/h 24 % 0 mm 682.0 W/m2 CLR
14:40 -2.8 °C -15.2 °C 34486.4 hPa NNW 41.7 km/h 41.7 km/h 24 % 0 mm 675.0 W/m2 CLR
14:45 -2.9 °C -15.6 °C 34486.4 hPa NNW 35.7 km/h 35.7 km/h 23 % 0 mm 666.0 W/m2 CLR
14:50 -2.7 °C -15.4 °C 34486.4 hPa NNW 38.8 km/h 38.8 km/h 23 % 0 mm 656.0 W/m2 CLR
14:55 -2.7 °C -15.5 °C 34486.4 hPa NNW 47.6 km/h 47.6 km/h 23 % 0 mm 650.0 W/m2 CLR
15:00 -2.7 °C -15.5 °C 34476.3 hPa North 44.7 km/h 44.7 km/h 23 % 0 mm 640.0 W/m2 CLR
15:05 -2.7 °C -15.2 °C 34476.3 hPa NNW 41.7 km/h 41.7 km/h 24 % 0 mm 635.0 W/m2 CLR
15:10 -2.7 °C -14.8 °C 34476.3 hPa NNW 32.8 km/h 32.8 km/h 25 % 0 mm 624.0 W/m2 CLR
15:15 -2.7 °C -15.8 °C 34476.3 hPa North 44.7 km/h 44.7 km/h 22 % 0 mm 612.0 W/m2 CLR
15:20 -2.6 °C -15.1 °C 34476.3 hPa NW 41.7 km/h 41.7 km/h 24 % 0 mm 605.0 W/m2 CLR
15:25 -2.7 °C -15.4 °C 34462.7 hPa NNW 41.7 km/h 41.7 km/h 23 % 0 mm 594.0 W/m2 CLR
15:30 -2.7 °C -14.7 °C 34462.7 hPa NNW 32.8 km/h 32.8 km/h 25 % 0 mm 580.0 W/m2 CLR
15:35 -2.6 °C -14.7 °C 34462.7 hPa NNW 41.4 km/h 41.4 km/h 25 % 0 mm 570.0 W/m2 CLR
15:40 -2.6 °C -15.4 °C 34462.7 hPa NW 38.8 km/h 38.8 km/h 23 % 0 mm 568.0 W/m2 CLR
15:45 -2.6 °C -15.3 °C 34462.7 hPa NNW 26.9 km/h 26.9 km/h 23 % 0 mm 548.0 W/m2 CLR
15:50 -2.5 °C -16 °C 34462.7 hPa NNW 41.7 km/h 41.7 km/h 21 % 0 mm 538.0 W/m2 CLR
15:55 -2.7 °C -15.1 °C 34462.7 hPa NNW 32.8 km/h 32.8 km/h 24 % 0 mm 522.0 W/m2 CLR
16:00 -2.7 °C -15.4 °C 34452.6 hPa NW 38.8 km/h 38.8 km/h 23 % 0 mm 517.0 W/m2 CLR
16:05 -2.7 °C -15.1 °C 34452.6 hPa NNW 38.8 km/h 38.8 km/h 24 % 0 mm 497.0 W/m2 CLR
16:10 -2.6 °C -14.7 °C 34452.6 hPa NNW 31.1 km/h 31.1 km/h 25 % 0 mm 483.0 W/m2 CLR
16:15 -2.6 °C -15 °C 34452.6 hPa WNW 33.6 km/h 33.6 km/h 24 % 0 mm 469.0 W/m2 CLR
16:20 -2.6 °C -15 °C 34442.4 hPa NW 29.8 km/h 29.8 km/h 24 % 0 mm 455.0 W/m2 CLR
16:25 -2.6 °C -14.6 °C 34452.6 hPa NW 23.8 km/h 23.8 km/h 25 % 0 mm 443.0 W/m2 CLR
16:30 -2.5 °C -14.3 °C 34442.4 hPa WNW 28.5 km/h 28.5 km/h 26 % 0 mm 427.0 W/m2 CLR
16:35 -2.6 °C -15.3 °C 34442.4 hPa NW 26.9 km/h 26.9 km/h 23 % 0 mm 417.0 W/m2 CLR
16:40 -2.6 °C -15.3 °C 34442.4 hPa NNW 29.8 km/h 29.8 km/h 23 % 0 mm 403.0 W/m2 CLR
16:45 -2.6 °C -16.1 °C 34442.4 hPa NW 35.7 km/h 35.7 km/h 21 % 0 mm 387.0 W/m2 CLR
16:50 -2.6 °C -16.1 °C 34442.4 hPa NNW 32.8 km/h 32.8 km/h 21 % 0 mm 373.0 W/m2 CLR
16:55 -2.6 °C -16.1 °C 34442.4 hPa NW 29.8 km/h 29.8 km/h 21 % 0 mm 355.0 W/m2 CLR
17:00 -2.6 °C -16.5 °C 34442.4 hPa NNW 29.8 km/h 29.8 km/h 20 % 0 mm 341.0 W/m2 CLR
17:05 -2.6 °C -16.1 °C 34442.4 hPa North 23.8 km/h 23.8 km/h 21 % 0 mm 325.0 W/m2 CLR
17:10 -2.6 °C -16.8 °C 34442.4 hPa NW 44.7 km/h 44.7 km/h 19 % 0 mm 311.0 W/m2 CLR
17:15 -2.7 °C -16.9 °C 34428.8 hPa NW 41.7 km/h 41.7 km/h 19 % 0 mm 294.0 W/m2 CLR
17:20 -2.7 °C -16.6 °C 34442.4 hPa NW 23.3 km/h 23.3 km/h 20 % 0 mm 278.0 W/m2 CLR
17:25 -2.7 °C -17.4 °C 34428.8 hPa North 32.8 km/h 32.8 km/h 18 % 0 mm 260.0 W/m2 CLR
17:30 -2.7 °C -17 °C 34428.8 hPa NW 29.8 km/h 29.8 km/h 19 % 0 mm 243.0 W/m2 CLR
17:35 -2.8 °C -17.1 °C 34428.8 hPa NW 23.8 km/h 23.8 km/h 19 % 0 mm 220.0 W/m2 CLR
17:40 -2.9 °C -16.7 °C 34428.8 hPa NNW 23.8 km/h 23.8 km/h 20 % 0 mm 200.0 W/m2 CLR
17:45 -2.9 °C -16.7 °C 34428.8 hPa NNW 26.9 km/h 26.9 km/h 20 % 0 mm 181.0 W/m2 CLR
17:50 -2.9 °C -16.4 °C 34442.4 hPa NNW 32.8 km/h 32.8 km/h 21 % 0 mm 162.0 W/m2 CLR
17:56 -3.1 °C -16.8 °C 34442.4 hPa NW 29.8 km/h 29.8 km/h 20 % 0 mm 144.0 W/m2 CLR
18:01 -3.1 °C -16.9 °C 34428.8 hPa NW 26.9 km/h 26.9 km/h 20 % 0 mm 123.0 W/m2 CLR
18:06 -3.2 °C -17.7 °C 34428.8 hPa NNW 26.9 km/h 26.9 km/h 18 % 0 mm 105.0 W/m2 CLR
18:11 -3.2 °C -17 °C 34428.8 hPa NW 23.8 km/h 23.8 km/h 20 % 0 mm 88.0 W/m2 CLR
18:16 -3.4 °C -17.4 °C 34428.8 hPa NW 29.8 km/h 29.8 km/h 19 % 0 mm 56.0 W/m2 FEW
18:21 -3.4 °C -16.8 °C 34442.4 hPa NW 23.8 km/h 23.8 km/h 21 % 0 mm 54.0 W/m2 SCT
18:26 -3.6 °C -16.9 °C 34442.4 hPa NW 10.3 km/h 10.3 km/h 21 % 0 mm 44.0 W/m2 SCT
18:31 -3.7 °C -17 °C 34442.4 hPa Calm     21 % 0 mm 33.0 W/m2 BKN
18:36 -3.7 °C -17.4 °C 34442.4 hPa Calm     20 % 0 mm 23.0 W/m2 BKN
18:41 -3.8 °C -17.4 °C 34442.4 hPa Calm     20 % 0 mm 14.0 W/m2 BKN
18:46 -4.1 °C -16.9 °C 34452.6 hPa Calm     22 % 0 mm 12.0 W/m2 BKN
18:51 -4.3 °C -17.1 °C 34452.6 hPa Calm     22 % 0 mm 11.0 W/m2 BKN
18:56 -4.5 °C -16.6 °C 34452.6 hPa Calm     24 % 0 mm 7.0 W/m2 BKN
19:01 -4.8 °C -16.8 °C 34452.6 hPa Calm     24 % 0 mm 5.0 W/m2 OVC
19:06 -5.1 °C -16.8 °C 34452.6 hPa Calm     25 % 0 mm 0.0 W/m2 OVC
19:11 -5.3 °C -17.3 °C 34452.6 hPa Calm     24 % 0 mm 0.0 W/m2 CLR
19:16 -5.4 °C -16.8 °C 34452.6 hPa Calm     26 % 0 mm 0.0 W/m2 CLR
19:21 -5.6 °C -16.6 °C 34452.6 hPa Calm     27 % 0 mm 0.0 W/m2 CLR
19:26 -5.8 °C -16.6 °C 34452.6 hPa Calm     28 % 0 mm 0.0 W/m2 CLR
19:31 -6.1 °C -16.4 °C 34462.7 hPa Calm     29 % 0 mm 0.0 W/m2 CLR
19:36 -6.3 °C -15.7 °C 34462.7 hPa Calm     33 % 0 mm 0.0 W/m2 CLR
19:41 -6.6 °C -15.9 °C 34462.7 hPa Calm     33 % 0 mm 0.0 W/m2 CLR
19:46 -7 °C -15.4 °C 34462.7 hPa Calm     37 % 0 mm 0.0 W/m2 CLR
19:51 -7.4 °C -15.3 °C 34462.7 hPa Calm     39 % 0 mm 0.0 W/m2 CLR
19:56 -7.7 °C -15.4 °C 34462.7 hPa Calm     40 % 0 mm 0.0 W/m2 CLR
20:01 -7.9 °C -15.4 °C 34462.7 hPa Calm     41 % 0 mm 0.0 W/m2 CLR
20:06 -8.1 °C -15.6 °C 34462.7 hPa Calm     41 % 0 mm 0.0 W/m2 CLR
20:11 -8.2 °C -15.7 °C 34462.7 hPa Calm     41 % 0 mm 0.0 W/m2 CLR
20:16 -8.3 °C -15.2 °C 34476.3 hPa Calm     44 % 0 mm 0.0 W/m2 CLR
20:21 -8.5 °C -15.4 °C 34476.3 hPa Calm     44 % 0 mm 0.0 W/m2 CLR
20:26 -8.7 °C -15.5 °C 34476.3 hPa Calm     44 % 0 mm 0.0 W/m2 CLR
20:31 -8.8 °C -15.4 °C 34476.3 hPa Calm     45 % 0 mm 0.0 W/m2 CLR
20:36 -9 °C -15.4 °C 34476.3 hPa Calm     46 % 0 mm 0.0 W/m2 CLR
20:41 -9.1 °C -15.4 °C 34476.3 hPa Calm     47 % 0 mm 0.0 W/m2 CLR
20:46 -9.3 °C -15.4 °C 34476.3 hPa Calm     48 % 0 mm 0.0 W/m2 CLR
20:51 -9.5 °C -15.4 °C 34486.4 hPa Calm     49 % 0 mm 0.0 W/m2 CLR
20:56 -9.6 °C -15.3 °C 34476.3 hPa Calm     50 % 0 mm 0.0 W/m2 CLR
21:01 -9.7 °C -15.3 °C 34486.4 hPa Calm     51 % 0 mm 0.0 W/m2 CLR
21:06 -9.9 °C -15.1 °C 34486.4 hPa Calm     53 % 0 mm 0.0 W/m2 CLR
21:11 -10.1 °C -15.3 °C 34486.4 hPa Calm     53 % 0 mm 0.0 W/m2 CLR
21:16 -10.2 °C -15.4 °C 34476.3 hPa Calm     53 % 0 mm 0.0 W/m2 CLR
21:21 -10.2 °C -15.3 °C 34486.4 hPa Calm     54 % 0 mm 0.0 W/m2 CLR
21:26 -10.4 °C -15.3 °C 34486.4 hPa Calm     55 % 0 mm 0.0 W/m2 CLR
21:31 -10.5 °C -15.4 °C 34486.4 hPa Calm     55 % 0 mm 0.0 W/m2 CLR
21:36 -10.6 °C -15.3 °C 34486.4 hPa Calm     56 % 0 mm 0.0 W/m2 CLR
21:41 -10.6 °C -15.3 °C 34486.4 hPa Calm     56 % 0 mm 0.0 W/m2 CLR
21:46 -10.6 °C -15.3 °C 34486.4 hPa Calm     56 % 0 mm 0.0 W/m2 CLR
21:51 -10.6 °C -15.5 °C 34486.4 hPa Calm     55 % 0 mm 0.0 W/m2 CLR
21:56 -10.6 °C -15.5 °C 34486.4 hPa Calm     55 % 0 mm 0.0 W/m2 CLR
22:01 -10.7 °C -15.4 °C 34486.4 hPa Calm     56 % 0 mm 0.0 W/m2 CLR
22:06 -10.8 °C -15.2 °C 34496.6 hPa Calm     58 % 0 mm 0.0 W/m2 CLR
22:11 -10.9 °C -15.2 °C 34496.6 hPa Calm     59 % 0 mm 0.0 W/m2 CLR
22:16 -11.1 °C -15.4 °C 34496.6 hPa Calm     59 % 0 mm 0.0 W/m2 CLR
22:21 -11.1 °C -15.3 °C 34496.6 hPa Calm     60 % 0 mm 0.0 W/m2 CLR
22:26 -11.2 °C -15.2 °C 34496.6 hPa Calm     61 % 0 mm 0.0 W/m2 CLR
22:31 -11.3 °C -15.3 °C 34496.6 hPa Calm     61 % 0 mm 0.0 W/m2 CLR
22:36 -11.3 °C -15.3 °C 34496.6 hPa Calm     62 % 0 mm 0.0 W/m2 CLR
22:37 -11.3 °C -15.3 °C 34496.6 hPa Calm     62 % 0 mm 0.0 W/m2 CLR
22:42 -11.4 °C -15.3 °C 34496.6 hPa Calm     62 % 0 mm 0.0 W/m2 CLR
22:47 -11.5 °C -15.3 °C 34496.6 hPa Calm     63 % 0 mm 0.0 W/m2 CLR
22:52 -11.6 °C -15.3 °C 34496.6 hPa Calm     63 % 0 mm 0.0 W/m2 CLR
22:57 -11.6 °C -15.4 °C 34496.6 hPa Calm     63 % 0 mm 0.0 W/m2 CLR
23:02 -11.6 °C -15.4 °C 34496.6 hPa Calm     63 % 0 mm 0.0 W/m2 CLR
23:07 -11.6 °C -15.4 °C 34496.6 hPa Calm     63 % 0 mm 0.0 W/m2 CLR
23:12 -11.6 °C -15.3 °C 34496.6 hPa Calm     63 % 0 mm 0.0 W/m2 CLR
23:17 -11.6 °C -15.3 °C 34496.6 hPa Calm     63 % 0 mm 0.0 W/m2 CLR
23:22 -11.6 °C -15.3 °C 34496.6 hPa Calm     63 % 0 mm 0.0 W/m2 CLR
23:27 -11.7 °C -15.3 °C 34510.1 hPa Calm     64 % 0 mm 0.0 W/m2 CLR
23:32 -11.8 °C -15.3 °C 34510.1 hPa Calm     65 % 0 mm 0.0 W/m2 CLR
23:37 -12 °C -15.4 °C 34510.1 hPa Calm     66 % 0 mm 0.0 W/m2 CLR
23:42 -12.1 °C -15.3 °C 34510.1 hPa Calm     67 % 0 mm 0.0 W/m2 CLR
23:47 -12.1 °C -15.4 °C 34510.1 hPa Calm     67 % 0 mm 0.0 W/m2 CLR
23:52 -12.1 °C -15.3 °C 34510.1 hPa Calm     67 % 0 mm 0.0 W/m2 CLR
23:57 -12.1 °C -15.3 °C 34510.1 hPa Calm     68 % 0 mm 0.0 W/m2 CLR
Lo Temps de Massalio
Compliments of Weather Underground - 1.25 mb